Time;durP1;ratioP1;P1;durP2;ratioP2;P2;SDS_P1;SDS_P2;PMS_P1;PMS_P2;Temp;Humidity;BMP_temperature;BMP_pressure;BME280_temperature;BME280_humidity;BME280_pressure;Samples;Min_cycle;Max_cycle;Signal;HPM_P1;HPM_P2
2024/04/17 00:00:15;;;;;;;8.25;1.60;;;15.10;96.70;;;;;;5423774;26;20139;-76
2024/04/17 00:02:45;;;;;;;7.03;1.50;;;15.10;96.70;;;;;;5411138;26;20011;-76
2024/04/17 00:05:15;;;;;;;7.68;1.30;;;15.10;96.70;;;;;;5410050;26;20014;-76
2024/04/17 00:07:45;;;;;;;9.82;1.80;;;15.00;96.70;;;;;;5407952;26;20004;-76
2024/04/17 00:10:14;;;;;;;4.53;1.27;;;14.90;96.70;;;;;;5409182;26;20010;-76
2024/04/17 00:12:51;;;;;;;8.32;1.60;;;14.80;96.70;;;;;;5408427;26;20088;-76
2024/04/17 00:16:01;;;;;;;9.57;2.27;;;14.80;96.70;;;;;;5403246;26;20088;-76
2024/04/17 00:18:34;;;;;;;11.05;1.77;;;14.90;96.70;;;;;;5406505;26;19999;-75
2024/04/17 00:21:04;;;;;;;9.93;1.92;;;14.90;96.70;;;;;;5411744;26;19999;-76
2024/04/17 00:23:32;;;;;;;11.77;1.40;;;14.80;96.70;;;;;;5404749;26;20003;-76
2024/04/17 00:26:01;;;;;;;6.95;1.50;;;14.90;96.70;;;;;;5413441;26;20009;-76
2024/04/17 00:28:32;;;;;;;7.45;1.45;;;14.90;96.70;;;;;;5408145;26;20132;-75
2024/04/17 00:31:01;;;;;;;7.95;1.55;;;14.80;96.70;;;;;;5408775;26;20011;-76
2024/04/17 00:33:30;;;;;;;7.35;1.30;;;14.80;96.70;;;;;;5420873;26;20007;-76
2024/04/17 00:36:01;;;;;;;4.60;1.13;;;14.90;96.70;;;;;;5423551;26;20003;-76
2024/04/17 00:38:29;;;;;;;9.80;1.65;;;14.90;96.70;;;;;;5410964;26;20003;-76
2024/04/17 00:40:58;;;;;;;3.00;0.93;;;14.80;96.70;;;;;;5415039;26;20003;-75
2024/04/17 00:43:28;;;;;;;6.93;1.08;;;14.70;96.70;;;;;;5408583;26;20030;-76
2024/04/17 00:46:00;;;;;;;9.80;1.30;;;14.70;96.70;;;;;;5413103;26;20004;-75
2024/04/17 00:48:32;;;;;;;4.40;1.20;;;14.70;96.70;;;;;;5412380;26;20017;-77
2024/04/17 00:51:01;;;;;;;7.80;1.27;;;14.70;96.70;;;;;;5416768;26;20039;-75
2024/04/17 00:53:33;;;;;;;7.60;1.40;;;14.80;96.70;;;;;;5415234;26;20101;-76
2024/04/17 00:56:02;;;;;;;8.45;1.00;;;14.70;96.70;;;;;;5393824;26;19996;-76
2024/04/17 00:58:31;;;;;;;4.32;1.10;;;14.70;96.70;;;;;;5410456;26;20456;-76
2024/04/17 01:01:13;;;;;;;6.18;1.02;;;14.80;96.70;;;;;;5411518;26;20004;-77
2024/04/17 01:03:43;;;;;;;7.20;0.90;;;14.80;96.70;;;;;;5408612;26;20084;-76
2024/04/17 01:06:12;;;;;;;3.97;1.10;;;14.70;96.70;;;;;;5407988;26;20577;-74
2024/04/17 01:08:59;;;;;;;5.80;1.02;;;14.70;96.70;;;;;;5409240;26;20019;-76
2024/04/17 01:11:37;;;;;;;6.00;1.25;;;14.60;96.70;;;;;;5409806;26;19999;-76
2024/04/17 01:14:06;;;;;;;3.97;0.98;;;14.50;96.70;;;;;;5408655;26;20003;-76
2024/04/17 01:16:41;;;;;;;7.47;1.02;;;14.60;96.70;;;;;;5410918;26;20061;-74
2024/04/17 01:19:12;;;;;;;8.10;0.90;;;14.50;96.70;;;;;;5413241;26;20003;-76
2024/04/17 01:21:42;;;;;;;5.38;1.50;;;14.60;96.70;;;;;;5415965;26;20013;-75
2024/04/17 01:24:14;;;;;;;5.72;1.15;;;14.50;96.70;;;;;;5407910;26;20084;-76
2024/04/17 01:26:43;;;;;;;6.68;0.82;;;14.60;96.70;;;;;;5422277;26;20133;-76
2024/04/17 01:29:11;;;;;;;3.90;1.25;;;14.70;96.70;;;;;;5409198;26;20003;-75
2024/04/17 01:31:56;;;;;;;5.82;1.13;;;14.60;96.70;;;;;;5420097;26;20018;-76
2024/04/17 01:34:25;;;;;;;5.03;0.80;;;14.50;96.70;;;;;;5408242;26;20011;-75
2024/04/17 01:36:54;;;;;;;7.43;1.10;;;14.40;96.70;;;;;;5422486;26;20000;-76
2024/04/17 01:39:25;;;;;;;4.15;0.80;;;14.40;96.70;;;;;;5409693;26;20754;-75
2024/04/17 01:41:54;;;;;;;4.57;0.85;;;14.40;96.70;;;;;;5408266;26;19999;-76
2024/04/17 01:44:26;;;;;;;4.90;0.85;;;14.40;96.70;;;;;;5412773;26;20080;-76
2024/04/17 01:46:58;;;;;;;5.25;0.80;;;14.40;96.70;;;;;;5410411;26;21244;-76
2024/04/17 01:49:27;;;;;;;7.82;1.67;;;14.40;96.70;;;;;;5401872;26;20048;-75
2024/04/17 01:51:56;;;;;;;6.32;0.90;;;14.40;96.70;;;;;;5411713;26;20117;-76
2024/04/17 01:54:27;;;;;;;6.10;1.00;;;14.40;96.70;;;;;;5402509;26;20004;-75
2024/04/17 01:56:56;;;;;;;5.80;1.02;;;14.50;96.70;;;;;;5434373;26;20076;-76
2024/04/17 01:59:25;;;;;;;3.58;1.10;;;14.60;96.70;;;;;;5407160;26;20003;-75
2024/04/17 02:01:54;;;;;;;5.55;0.82;;;14.50;96.70;;;;;;5409176;26;20087;-76
2024/04/17 02:04:23;;;;;;;7.50;1.15;;;14.60;96.70;;;;;;5418117;26;19995;-75
2024/04/17 02:06:52;;;;;;;6.00;1.20;;;14.60;96.70;;;;;;5407454;26;20445;-75
2024/04/17 02:09:39;;;;;;;5.15;0.98;;;14.60;96.70;;;;;;5411998;26;21710;-76
2024/04/17 02:12:52;;;;;;;4.93;1.15;;;14.60;96.70;;;;;;5406743;26;20090;-75
2024/04/17 02:15:21;;;;;;;6.10;0.80;;;14.60;96.70;;;;;;5408117;26;20008;-75
2024/04/17 02:17:49;;;;;;;2.50;0.68;;;14.70;96.70;;;;;;5409174;26;20376;-75
2024/04/17 02:20:18;;;;;;;6.15;1.10;;;14.70;96.70;;;;;;5407384;26;20004;-76
2024/04/17 02:22:50;;;;;;;2.47;0.60;;;14.70;96.70;;;;;;5408008;26;20473;-76
2024/04/17 02:25:19;;;;;;;2.53;1.00;;;14.80;96.70;;;;;;5408405;26;20481;-76
2024/04/17 02:28:19;;;;;;;5.35;0.70;;;14.70;96.70;;;;;;5401928;26;20096;-76
2024/04/17 02:31:06;;;;;;;5.15;0.80;;;14.70;96.70;;;;;;5412962;26;20400;-76
2024/04/17 02:33:35;;;;;;;;;;;14.80;96.70;;;;;;5404945;26;20710;-75
2024/04/17 02:36:05;;;;;;;5.07;0.57;;;14.80;96.70;;;;;;5407936;26;19994;-76
2024/04/17 02:38:34;;;;;;;1.55;0.55;;;14.80;96.70;;;;;;5409256;26;20011;-75
2024/04/17 02:41:04;;;;;;;5.25;0.75;;;14.80;96.70;;;;;;5409072;26;20014;-75
2024/04/17 02:43:38;;;;;;;2.92;0.60;;;14.70;96.70;;;;;;5408040;26;20011;-75
2024/04/17 02:46:07;;;;;;;6.18;0.60;;;14.80;96.70;;;;;;5415873;26;20018;-76
2024/04/17 02:48:36;;;;;;;5.15;0.77;;;14.80;96.70;;;;;;5421190;26;20015;-75
2024/04/17 02:51:06;;;;;;;5.25;0.90;;;14.70;96.70;;;;;;5420994;26;20023;-75
2024/04/17 02:53:35;;;;;;;2.50;0.73;;;14.80;96.70;;;;;;5405156;26;20046;-75
2024/04/17 02:56:07;;;;;;;3.03;0.85;;;14.80;96.70;;;;;;5410091;26;19999;-76
2024/04/17 02:58:39;;;;;;;4.13;0.82;;;14.90;96.70;;;;;;5412832;26;20576;-75
2024/04/17 03:01:57;;;;;;;3.42;0.70;;;14.80;96.70;;;;;;5406618;26;19995;-76
2024/04/17 03:04:07;;;;;;;4.45;0.90;;;14.70;96.70;;;;;;5407844;26;20003;-75
2024/04/17 03:06:35;;;;;;;2.55;0.70;;;14.80;96.70;;;;;;5414366;26;21388;-75
2024/04/17 03:09:04;;;;;;;4.65;0.85;;;14.80;96.70;;;;;;5409682;26;19999;-76
2024/04/17 03:11:36;;;;;;;1.50;0.47;;;14.70;96.70;;;;;;5419648;26;20032;-76
2024/04/17 03:14:07;;;;;;;4.82;0.80;;;14.70;96.70;;;;;;5417808;26;20007;-75
2024/04/17 03:16:39;;;;;;;3.47;0.63;;;14.70;96.70;;;;;;5412565;26;20007;-76
2024/04/17 03:19:08;;;;;;;1.88;0.65;;;14.70;96.70;;;;;;5405620;26;20467;-75
2024/04/17 03:21:39;;;;;;;2.58;0.70;;;14.70;96.70;;;;;;5407318;26;20069;-76
2024/04/17 03:24:08;;;;;;;3.45;0.60;;;14.60;96.70;;;;;;5375427;26;20014;-75
2024/04/17 03:26:36;;;;;;;4.45;0.80;;;14.70;96.70;;;;;;5403920;26;20003;-76
2024/04/17 03:29:08;;;;;;;2.65;0.60;;;14.70;96.70;;;;;;5406863;26;20459;-75
2024/04/17 03:31:36;;;;;;;4.18;0.73;;;14.60;96.70;;;;;;5422900;26;20072;-76
2024/04/17 03:34:07;;;;;;;2.75;0.93;;;14.60;96.70;;;;;;5410276;26;20003;-76
2024/04/17 03:36:37;;;;;;;4.68;0.70;;;14.60;96.70;;;;;;5410284;26;20010;-76
2024/04/17 03:39:05;;;;;;;2.88;0.80;;;14.60;96.70;;;;;;5415812;26;19999;-76
2024/04/17 03:41:34;;;;;;;4.18;1.30;;;14.60;96.70;;;;;;5403353;26;20015;-75
2024/04/17 03:44:03;;;;;;;3.58;1.40;;;14.60;96.70;;;;;;5424300;26;20015;-76
2024/04/17 03:46:37;;;;;;;5.38;1.80;;;14.50;96.70;;;;;;5429276;26;20342;-74
2024/04/17 03:49:06;;;;;;;4.20;2.15;;;14.50;96.70;;;;;;5391119;26;20419;-75
2024/04/17 03:51:34;;;;;;;6.25;2.60;;;14.50;96.70;;;;;;5410226;26;20008;-75
2024/04/17 03:54:03;;;;;;;7.15;2.92;;;14.50;96.70;;;;;;5413561;26;20101;-75
2024/04/17 03:56:32;;;;;;;5.30;1.80;;;14.40;96.70;;;;;;5396388;26;20484;-75
2024/04/17 03:59:01;;;;;;;6.35;2.00;;;14.50;96.70;;;;;;5401589;26;20177;-75
2024/04/17 04:01:36;;;;;;;3.15;1.13;;;14.50;96.70;;;;;;5421466;26;20014;-75
2024/04/17 04:04:04;;;;;;;2.47;1.02;;;14.50;96.70;;;;;;5412190;26;19998;-75
2024/04/17 04:06:33;;;;;;;2.75;1.00;;;14.50;96.70;;;;;;5404914;26;19997;-75
2024/04/17 04:09:02;;;;;;;3.20;0.98;;;14.50;96.70;;;;;;5407803;26;20396;-76
2024/04/17 04:11:34;;;;;;;3.75;0.88;;;14.50;96.70;;;;;;5407390;26;20014;-76
2024/04/17 04:14:04;;;;;;;4.53;0.82;;;14.50;96.70;;;;;;5413671;26;20003;-75
2024/04/17 04:16:36;;;;;;;3.00;0.63;;;14.40;96.70;;;;;;5411500;26;20046;-75
2024/04/17 04:19:04;;;;;;;6.40;0.80;;;14.30;96.70;;;;;;5419292;26;20007;-75
2024/04/17 04:21:33;;;;;;;5.43;0.80;;;14.30;96.70;;;;;;5409775;26;20014;-75
2024/04/17 04:24:06;;;;;;;4.95;0.90;;;14.30;96.70;;;;;;5410499;26;20301;-75
2024/04/17 04:26:35;;;;;;;3.10;0.90;;;14.40;96.70;;;;;;5410494;26;20514;-75
2024/04/17 04:29:04;;;;;;;5.00;0.80;;;14.30;96.70;;;;;;5395779;26;20410;-75
2024/04/17 04:31:35;;;;;;;2.72;0.77;;;14.30;96.70;;;;;;5409275;26;20008;-76
2024/04/17 04:34:04;;;;;;;3.60;0.63;;;14.30;96.70;;;;;;5410238;26;19999;-75
2024/04/17 04:36:33;;;;;;;3.92;0.90;;;14.30;96.70;;;;;;5415456;26;20084;-75
2024/04/17 04:39:01;;;;;;;2.15;0.68;;;14.20;96.70;;;;;;5410454;26;20019;-75
2024/04/17 04:41:30;;;;;;;3.33;0.52;;;14.20;96.70;;;;;;5408064;26;20018;-75
2024/04/17 04:43:59;;;;;;;6.50;1.08;;;14.20;96.70;;;;;;5408648;26;20008;-75
2024/04/17 04:46:27;;;;;;;4.65;0.70;;;14.20;96.70;;;;;;5408548;26;20003;-76
2024/04/17 04:48:59;;;;;;;4.40;0.68;;;14.10;96.70;;;;;;5420881;26;20014;-74
2024/04/17 04:51:28;;;;;;;3.92;0.55;;;14.10;96.70;;;;;;5417006;26;20022;-75
2024/04/17 04:53:57;;;;;;;4.60;0.68;;;14.10;96.70;;;;;;5412790;26;20345;-75
2024/04/17 04:56:26;;;;;;;2.53;0.52;;;14.10;96.70;;;;;;5420071;26;20455;-76
2024/04/17 04:58:54;;;;;;;3.63;0.60;;;14.10;96.70;;;;;;5408157;26;19999;-76
2024/04/17 05:01:24;;;;;;;2.78;0.90;;;14.10;96.70;;;;;;5406186;26;20530;-75
2024/04/17 05:03:53;;;;;;;2.78;0.93;;;14.10;96.70;;;;;;5434395;26;20337;-74
2024/04/17 05:06:24;;;;;;;4.05;0.98;;;14.20;96.70;;;;;;5414645;26;19999;-75
2024/04/17 05:08:53;;;;;;;2.67;0.75;;;14.10;96.70;;;;;;5395427;26;20011;-75
2024/04/17 05:11:22;;;;;;;4.13;1.05;;;14.10;96.70;;;;;;5411746;26;20008;-75
2024/04/17 05:13:50;;;;;;;3.47;0.70;;;14.10;96.70;;;;;;5414281;26;20007;-75
2024/04/17 05:16:20;;;;;;;3.47;0.68;;;14.10;96.70;;;;;;5412286;26;20340;-75
2024/04/17 05:18:54;;;;;;;2.50;0.80;;;14.20;96.70;;;;;;5411414;26;20003;-75
2024/04/17 05:21:25;;;;;;;5.88;1.10;;;14.30;96.70;;;;;;5393913;26;20011;-75
2024/04/17 05:23:55;;;;;;;6.90;1.05;;;14.20;96.70;;;;;;5408058;26;20015;-74
2024/04/17 05:26:25;;;;;;;7.38;1.38;;;14.20;96.70;;;;;;5410193;26;19999;-76
2024/04/17 05:28:54;;;;;;;4.80;1.25;;;14.10;96.70;;;;;;5416426;26;20003;-75
2024/04/17 05:31:23;;;;;;;4.63;0.95;;;14.10;96.70;;;;;;5409939;26;20005;-75
2024/04/17 05:33:51;;;;;;;3.92;1.38;;;14.20;96.70;;;;;;5418716;26;20011;-75
2024/04/17 05:36:20;;;;;;;4.68;0.95;;;14.20;96.70;;;;;;5413932;26;20004;-75
2024/04/17 05:38:51;;;;;;;4.72;1.20;;;14.20;96.70;;;;;;5429490;26;20072;-75
2024/04/17 05:41:20;;;;;;;3.60;0.95;;;14.20;96.70;;;;;;5415274;26;20007;-73
2024/04/17 05:43:48;;;;;;;6.22;1.30;;;14.20;96.70;;;;;;5407660;26;20399;-75
2024/04/17 05:46:17;;;;;;;3.85;1.00;;;14.20;96.70;;;;;;5421784;26;20355;-74
2024/04/17 05:48:48;;;;;;;5.53;0.95;;;14.30;96.70;;;;;;5397090;26;20802;-73
2024/04/17 05:51:17;;;;;;;6.78;1.38;;;14.20;96.70;;;;;;5407589;26;19999;-74
2024/04/17 05:53:45;;;;;;;3.72;1.10;;;14.20;96.70;;;;;;5410432;26;20026;-74
2024/04/17 05:56:16;;;;;;;4.97;1.55;;;14.30;96.70;;;;;;5405401;26;20023;-76
2024/04/17 05:58:46;;;;;;;4.60;0.82;;;14.20;96.70;;;;;;5408415;26;20042;-75
2024/04/17 06:01:14;;;;;;;4.20;1.10;;;14.30;96.70;;;;;;5412679;26;20012;-74
2024/04/17 06:03:54;;;;;;;3.47;1.10;;;14.40;96.70;;;;;;5408456;26;19996;-74
2024/04/17 06:06:27;;;;;;;8.10;1.80;;;14.40;96.70;;;;;;5406357;26;20023;-74
2024/04/17 06:08:56;;;;;;;9.70;1.60;;;14.40;96.70;;;;;;5394088;26;20011;-76
2024/04/17 06:11:32;;;;;;;8.32;1.52;;;14.40;96.70;;;;;;5407628;26;20003;-73
2024/04/17 06:14:01;;;;;;;6.40;1.92;;;14.60;96.70;;;;;;5408027;26;20538;-73
2024/04/17 06:16:33;;;;;;;6.07;1.70;;;14.70;96.70;;;;;;5407054;26;20011;-73
2024/04/17 06:19:16;;;;;;;8.85;2.10;;;14.70;96.70;;;;;;5409375;26;20028;-73
2024/04/17 06:21:45;;;;;;;6.43;1.30;;;14.70;96.70;;;;;;5407491;26;20813;-74
2024/04/17 06:24:49;;;;;;;5.47;1.75;;;14.60;96.70;;;;;;5401747;26;20007;-74
2024/04/17 06:28:03;;;;;;;8.75;2.25;;;14.60;96.70;;;;;;5396616;26;20088;-75
2024/04/17 06:30:32;;;;;;;8.73;1.92;;;14.70;96.70;;;;;;5405806;26;20008;-74
2024/04/17 06:33:01;;;;;;;4.72;1.73;;;14.80;96.70;;;;;;5407902;26;20004;-75
2024/04/17 06:35:29;;;;;;;6.82;2.00;;;14.80;96.70;;;;;;5405686;26;20031;-74
2024/04/17 06:37:59;;;;;;;7.05;1.73;;;14.90;96.70;;;;;;5427920;26;20020;-74
2024/04/17 06:40:30;;;;;;;5.30;2.00;;;15.00;96.70;;;;;;5403915;26;20093;-74
2024/04/17 06:43:03;;;;;;;6.75;1.65;;;15.10;96.70;;;;;;5407562;26;20173;-74
2024/04/17 06:45:32;;;;;;;5.47;1.60;;;15.10;96.70;;;;;;5407366;26;20015;-74
2024/04/17 06:48:01;;;;;;;4.20;1.50;;;15.10;96.70;;;;;;5406737;26;19996;-74
2024/04/17 06:50:51;;;;;;;4.70;1.52;;;15.10;96.70;;;;;;5406625;26;20008;-74
2024/04/17 06:53:20;;;;;;;4.15;1.25;;;15.10;96.70;;;;;;5404192;26;20383;-74
2024/04/17 06:55:52;;;;;;;6.22;1.83;;;15.10;96.70;;;;;;5406966;26;20406;-73
2024/04/17 06:58:24;;;;;;;5.78;1.45;;;15.00;96.70;;;;;;5407476;26;20405;-74
2024/04/17 07:01:00;;;;;;;7.28;1.27;;;15.00;96.70;;;;;;5407095;26;20040;-73
2024/04/17 07:03:36;;;;;;;4.95;1.20;;;15.00;96.70;;;;;;5407565;26;20334;-74
2024/04/17 07:06:05;;;;;;;4.22;2.03;;;15.00;96.70;;;;;;5408054;26;20463;-75
2024/04/17 07:09:00;;;;;;;5.20;1.27;;;15.20;96.70;;;;;;5410514;26;20014;-74
2024/04/17 07:11:35;;;;;;;5.45;1.95;;;15.50;96.70;;;;;;5400137;26;20465;-75
2024/04/17 07:14:08;;;;;;;5.47;1.60;;;15.50;96.70;;;;;;5410519;26;20460;-74
2024/04/17 07:16:39;;;;;;;6.38;1.48;;;15.50;96.70;;;;;;5408008;26;20003;-75
2024/04/17 07:19:33;;;;;;;4.20;1.52;;;15.70;96.70;;;;;;5394609;26;20445;-74
2024/04/17 07:22:08;;;;;;;4.97;1.50;;;15.80;96.70;;;;;;5409781;26;20833;-74
2024/04/17 07:24:37;;;;;;;8.15;1.58;;;15.80;96.70;;;;;;5402520;26;20004;-75
2024/04/17 07:27:06;;;;;;;6.13;1.40;;;15.80;96.70;;;;;;5394928;26;20504;-75
2024/04/17 07:29:38;;;;;;;9.13;2.05;;;15.70;96.70;;;;;;5410696;26;19999;-75
2024/04/17 07:32:07;;;;;;;5.40;1.50;;;15.70;96.70;;;;;;5410067;26;20398;-75
2024/04/17 07:34:36;;;;;;;8.48;1.70;;;15.70;96.70;;;;;;5410071;26;20023;-73
2024/04/17 07:37:06;;;;;;;6.50;2.33;;;15.80;96.70;;;;;;5409193;26;20036;-74
2024/04/17 07:39:36;;;;;;;6.00;1.80;;;15.80;96.70;;;;;;5363855;26;20014;-75
2024/04/17 07:42:05;;;;;;;4.50;1.60;;;15.80;96.70;;;;;;5409110;26;20003;-74
2024/04/17 07:44:37;;;;;;;5.65;1.70;;;15.90;96.70;;;;;;5409970;26;20032;-74
2024/04/17 07:47:06;;;;;;;4.70;1.42;;;15.90;96.70;;;;;;5409664;26;20103;-75
2024/04/17 07:49:36;;;;;;;4.88;1.65;;;15.90;96.70;;;;;;5409716;26;20039;-74
2024/04/17 07:52:06;;;;;;;7.32;1.60;;;15.90;96.70;;;;;;5409872;26;20010;-74
2024/04/17 07:54:38;;;;;;;6.30;1.55;;;15.90;96.70;;;;;;5410588;26;20008;-74
2024/04/17 07:57:19;;;;;;;5.50;1.30;;;16.00;96.70;;;;;;5404207;26;20031;-75
2024/04/17 07:59:59;;;;;;;6.57;1.75;;;16.10;96.70;;;;;;5408040;26;20038;-74
2024/04/17 08:02:39;;;;;;;9.50;1.90;;;16.10;96.70;;;;;;5408530;26;20067;-74
2024/04/17 08:05:27;;;;;;;2.22;1.05;;;16.10;96.70;;;;;;5409855;26;20000;-74
2024/04/17 08:07:59;;;;;;;5.88;1.48;;;16.10;96.70;;;;;;5395282;26;20184;-74
2024/04/17 08:10:50;;;;;;;8.85;1.58;;;16.20;96.70;;;;;;5396010;26;20007;-74
2024/04/17 08:13:44;;;;;;;5.53;1.33;;;16.30;96.70;;;;;;5408501;26;20079;-74
2024/04/17 08:16:15;;;;;;;2.88;1.10;;;16.20;96.70;;;;;;5409287;26;20003;-74
2024/04/17 08:19:15;;;;;;;4.15;1.35;;;16.20;96.70;;;;;;5436500;26;20057;-73
2024/04/17 08:21:47;;;;;;;3.45;1.27;;;16.30;96.70;;;;;;5408467;26;20040;-75
2024/04/17 08:24:16;;;;;;;3.38;1.50;;;16.20;96.70;;;;;;5407901;26;20055;-74
2024/04/17 08:26:47;;;;;;;3.03;0.85;;;16.40;96.70;;;;;;5407551;26;19999;-75
2024/04/17 08:29:35;;;;;;;5.68;1.30;;;16.50;96.70;;;;;;5405074;26;20109;-74
2024/04/17 08:32:08;;;;;;;5.13;1.30;;;16.50;96.70;;;;;;5399180;26;20022;-74
2024/04/17 08:34:37;;;;;;;5.53;1.08;;;16.50;96.70;;;;;;5409801;26;20023;-74
2024/04/17 08:37:13;;;;;;;5.82;1.60;;;16.60;96.70;;;;;;5409211;26;20080;-75
2024/04/17 08:39:46;;;;;;;6.38;1.60;;;16.60;96.70;;;;;;5407395;26;20012;-74
2024/04/17 08:42:23;;;;;;;5.65;1.42;;;16.60;96.70;;;;;;5408400;26;20029;-75
2024/04/17 08:44:53;;;;;;;8.40;1.80;;;16.70;96.70;;;;;;5403270;26;20044;-75
2024/04/17 08:47:25;;;;;;;6.22;1.98;;;16.60;96.70;;;;;;5408957;26;20003;-74
2024/04/17 08:49:58;;;;;;;4.95;1.60;;;16.70;96.70;;;;;;5407353;26;20101;-74
2024/04/17 08:52:53;;;;;;;4.38;1.50;;;16.70;96.70;;;;;;5359919;26;20018;-74
2024/04/17 08:55:23;;;;;;;4.57;1.38;;;16.80;96.70;;;;;;5406296;26;20511;-74
2024/04/17 08:58:19;;;;;;;4.78;1.73;;;16.80;96.70;;;;;;5409012;26;20472;-75
2024/04/17 09:00:50;;;;;;;4.28;1.60;;;16.90;96.70;;;;;;5395210;26;20036;-74
2024/04/17 09:03:24;;;;;;;5.18;1.45;;;17.00;96.70;;;;;;5407661;26;20000;-74
2024/04/17 09:05:54;;;;;;;6.40;1.65;;;17.10;96.70;;;;;;5408349;26;20476;-74
2024/04/17 09:08:25;;;;;;;6.20;1.88;;;17.20;96.70;;;;;;5408819;26;20004;-75
2024/04/17 09:11:07;;;;;;;7.93;2.17;;;17.30;96.70;;;;;;5408504;26;19999;-74
2024/04/17 09:13:59;;;;;;;8.63;2.00;;;17.40;96.70;;;;;;5399167;26;20844;-75
2024/04/17 09:16:28;;;;;;;7.03;2.20;;;17.40;96.70;;;;;;5401064;26;20314;-74
2024/04/17 09:19:07;;;;;;;7.45;2.30;;;17.40;96.70;;;;;;5408633;26;20417;-74
2024/04/17 09:21:39;;;;;;;6.75;1.70;;;17.40;96.70;;;;;;5394814;26;20484;-75
2024/04/17 09:24:13;;;;;;;7.88;1.95;;;17.40;96.70;;;;;;5408582;26;20000;-75
2024/04/17 09:27:43;;;;;;;;;;;;;;;;;;;;;
2024/04/17 09:30:22;;;;;;;4.20;1.98;;;17.50;96.70;;;;;;5332092;26;20041;-75
2024/04/17 09:32:53;;;;;;;8.00;2.55;;;17.50;96.70;;;;;;5407698;26;20019;-75
2024/04/17 09:35:29;;;;;;;6.28;2.20;;;17.50;96.70;;;;;;5408612;26;20467;-75
2024/04/17 09:37:58;;;;;;;5.50;2.08;;;17.50;96.70;;;;;;5407185;26;20019;-74
2024/04/17 09:40:28;;;;;;;6.35;2.10;;;17.50;96.70;;;;;;5406956;26;20000;-75
2024/04/17 09:43:00;;;;;;;4.75;2.10;;;17.60;96.70;;;;;;5407423;26;20018;-76
2024/04/17 09:45:46;;;;;;;;;;;17.70;96.70;;;;;;5409360;26;20695;-75
2024/04/17 09:48:16;;;;;;;3.95;1.05;;;17.80;96.70;;;;;;5408443;26;19931;-73
2024/04/17 09:50:49;;;;;;;4.40;1.30;;;17.90;96.70;;;;;;5407760;26;20011;-75
2024/04/17 09:53:56;;;;;;;5.82;1.30;;;18.00;96.70;;;;;;5345913;26;20036;-75
2024/04/17 09:56:26;;;;;;;3.53;0.88;;;18.00;96.70;;;;;;5406338;26;20004;-75
2024/04/17 09:58:57;;;;;;;3.20;0.80;;;18.10;96.70;;;;;;5406852;26;20068;-74
2024/04/17 10:01:40;;;;;;;3.45;0.80;;;18.20;96.70;;;;;;5407649;26;20647;-75
2024/04/17 10:07:50;;;;;;;3.60;0.98;;;18.50;96.70;;;;;;5381450;26;20583;-75
2024/04/17 10:10:19;;;;;;;3.22;1.00;;;18.70;96.70;;;;;;5401413;26;20018;-75
2024/04/17 10:12:52;;;;;;;7.95;1.30;;;19.00;96.70;;;;;;5406283;26;20022;-76
2024/04/17 10:15:21;;;;;;;2.95;0.98;;;19.10;96.70;;;;;;5408117;26;20003;-75
2024/04/17 10:18:09;;;;;;;11.93;1.35;;;19.00;96.70;;;;;;5408047;26;20500;-76
2024/04/17 10:20:38;;;;;;;5.70;1.33;;;18.90;96.70;;;;;;5393967;26;20019;-78
2024/04/17 10:23:14;;;;;;;5.10;1.20;;;19.00;96.70;;;;;;5408553;26;20122;-76
2024/04/17 10:25:57;;;;;;;5.13;1.08;;;19.20;96.70;;;;;;5403028;26;20019;-76
2024/04/17 10:28:27;;;;;;;5.55;1.48;;;19.40;96.70;;;;;;5407087;26;20853;-77
2024/04/17 10:30:56;;;;;;;6.28;1.20;;;19.70;96.70;;;;;;5408397;26;20574;-78
2024/04/17 10:33:28;;;;;;;3.10;1.05;;;19.70;96.70;;;;;;5397428;26;20088;-77
2024/04/17 10:36:04;;;;;;;4.70;1.20;;;19.50;96.70;;;;;;5406249;26;20825;-76
2024/04/17 10:38:38;;;;;;;5.07;1.20;;;19.50;96.70;;;;;;5404309;26;20003;-76
2024/04/17 10:41:14;;;;;;;3.33;0.80;;;19.60;96.70;;;;;;5407395;26;20014;-76
2024/04/17 10:43:45;;;;;;;4.97;0.90;;;19.70;96.70;;;;;;5403345;26;19995;-75
2024/04/17 10:46:23;;;;;;;4.18;1.02;;;19.60;96.70;;;;;;5407074;26;20088;-76
2024/04/17 10:48:52;;;;;;;2.85;1.10;;;19.50;96.70;;;;;;5407354;26;20011;-76
2024/04/17 10:51:24;;;;;;;5.05;1.00;;;19.20;96.70;;;;;;5407401;26;20157;-77
2024/04/17 10:54:05;;;;;;;4.25;0.80;;;19.20;96.70;;;;;;5422331;26;20695;-76
2024/04/17 10:56:34;;;;;;;5.53;0.93;;;19.10;96.70;;;;;;5422488;26;19999;-77
2024/04/17 10:59:03;;;;;;;3.53;0.80;;;19.10;96.70;;;;;;5417479;26;20000;-76
2024/04/17 11:01:37;;;;;;;4.05;0.80;;;19.00;96.70;;;;;;5406451;26;20353;-76
2024/04/17 11:04:09;;;;;;;4.20;1.05;;;18.90;96.70;;;;;;5406902;26;20000;-77
2024/04/17 11:06:38;;;;;;;5.40;1.10;;;18.70;96.70;;;;;;5407231;26;19999;-76
2024/04/17 11:09:10;;;;;;;6.22;2.10;;;18.60;96.70;;;;;;5407224;26;20018;-76
2024/04/17 11:11:45;;;;;;;5.43;1.30;;;18.60;96.70;;;;;;5406751;26;20007;-76
2024/04/17 11:14:14;;;;;;;4.53;1.20;;;18.70;96.70;;;;;;5404935;26;19996;-76
2024/04/17 11:16:43;;;;;;;4.65;1.38;;;18.70;96.70;;;;;;5406727;26;20123;-76
2024/04/17 11:19:16;;;;;;;2.10;0.80;;;18.70;96.70;;;;;;5405380;26;20015;-75
2024/04/17 11:21:44;;;;;;;5.38;1.30;;;18.70;96.70;;;;;;5406255;26;20035;-75
2024/04/17 11:24:20;;;;;;;2.50;0.82;;;18.70;96.70;;;;;;5408356;26;20004;-76
2024/04/17 11:26:52;;;;;;;4.87;1.30;;;18.80;96.70;;;;;;5407105;26;20007;-76
2024/04/17 11:29:21;;;;;;;4.53;1.17;;;18.90;96.70;;;;;;5403908;26;20011;-76
2024/04/17 11:32:04;;;;;;;3.75;1.05;;;18.90;96.70;;;;;;5404972;26;19999;-76
2024/04/17 11:34:32;;;;;;;5.88;2.10;;;19.10;96.70;;;;;;5406934;26;19996;-76
2024/04/17 11:37:04;;;;;;;4.97;1.08;;;19.20;96.70;;;;;;5404871;26;19999;-76
2024/04/17 11:39:36;;;;;;;4.28;1.10;;;19.30;96.70;;;;;;5406929;26;20069;-74
2024/04/17 11:42:09;;;;;;;2.88;0.88;;;19.40;96.70;;;;;;5405946;26;20349;-75
2024/04/17 11:44:41;;;;;;;3.45;0.88;;;19.50;96.70;;;;;;5407054;26;20072;-75
2024/04/17 11:47:11;;;;;;;5.55;1.50;;;19.50;96.70;;;;;;5406706;26;20084;-75
2024/04/17 11:49:40;;;;;;;2.47;1.10;;;19.50;96.70;;;;;;5404477;26;20019;-76
2024/04/17 11:52:11;;;;;;;3.03;1.20;;;19.60;96.70;;;;;;5408512;26;20000;-77
2024/04/17 11:54:43;;;;;;;2.60;1.45;;;19.90;96.70;;;;;;5405649;26;20015;-75
2024/04/17 11:57:19;;;;;;;2.60;0.80;;;20.10;96.70;;;;;;5415740;26;20363;-75
2024/04/17 11:59:51;;;;;;;2.88;0.40;;;20.00;96.70;;;;;;5417785;26;20364;-76
2024/04/17 12:02:38;;;;;;;2.20;0.47;;;19.70;96.70;;;;;;5401268;26;20031;-74
2024/04/17 12:05:08;;;;;;;2.17;0.30;;;19.30;96.70;;;;;;5407172;26;20003;-77
2024/04/17 12:07:41;;;;;;;4.75;0.40;;;19.00;96.70;;;;;;5409631;26;20054;-72
2024/04/17 12:10:17;;;;;;;1.73;0.47;;;18.70;96.70;;;;;;5410117;26;20015;-75
2024/04/17 12:12:46;;;;;;;2.33;0.20;;;18.40;96.70;;;;;;5409815;26;20072;-76
2024/04/17 12:15:15;;;;;;;1.08;0.20;;;18.20;96.70;;;;;;5410728;26;20013;-74
2024/04/17 12:17:44;;;;;;;1.40;0.20;;;18.10;96.70;;;;;;5403345;26;20666;-73
2024/04/17 12:20:14;;;;;;;2.35;0.35;;;17.90;96.70;;;;;;5405339;26;20919;-76
2024/04/17 12:22:44;;;;;;;1.15;0.25;;;17.70;96.70;;;;;;5407408;26;20588;-73
2024/04/17 12:28:04;;;;;;;3.75;0.45;;;17.50;96.70;;;;;;5401288;26;20003;-75
2024/04/17 12:30:33;;;;;;;1.77;0.52;;;17.50;96.70;;;;;;5415049;26;20394;-73
2024/04/17 12:33:01;;;;;;;1.13;0.20;;;17.30;96.70;;;;;;5407377;26;20014;-73
2024/04/17 12:35:30;;;;;;;1.05;0.20;;;17.20;96.70;;;;;;5418749;26;20014;-74
2024/04/17 12:37:59;;;;;;;2.03;0.30;;;17.10;96.70;;;;;;5405608;26;20053;-76
2024/04/17 12:40:34;;;;;;;1.40;0.35;;;17.10;96.70;;;;;;5403828;26;20000;-75
2024/04/17 12:43:06;;;;;;;2.95;1.00;;;17.20;96.70;;;;;;5411039;26;20004;-75
2024/04/17 12:45:35;;;;;;;4.15;0.50;;;17.20;96.70;;;;;;5409193;26;20071;-74
2024/04/17 12:48:31;;;;;;;1.25;0.30;;;17.30;96.70;;;;;;5409197;26;20501;-75
2024/04/17 12:51:00;;;;;;;1.08;0.30;;;17.40;96.70;;;;;;5417608;26;20035;-72
2024/04/17 12:53:28;;;;;;;0.93;0.13;;;17.40;96.70;;;;;;5421080;26;19998;-73
2024/04/17 12:55:59;;;;;;;1.15;0.50;;;17.50;96.70;;;;;;5415433;26;20148;-73
2024/04/17 12:58:33;;;;;;;1.05;0.30;;;17.50;96.70;;;;;;5415762;26;20337;-73
2024/04/17 13:01:04;;;;;;;1.02;0.32;;;17.60;96.70;;;;;;5418971;26;19999;-73
2024/04/17 13:03:33;;;;;;;2.10;0.30;;;17.80;96.70;;;;;;5408148;26;22069;-73
2024/04/17 13:06:03;;;;;;;3.88;0.30;;;18.10;96.70;;;;;;5391463;26;20004;-74
2024/04/17 13:08:36;;;;;;;1.08;0.50;;;18.30;96.70;;;;;;5407078;26;20000;-74
2024/04/17 13:11:08;;;;;;;1.10;0.40;;;18.70;96.70;;;;;;5405311;26;20457;-74
2024/04/17 13:13:42;;;;;;;1.63;0.47;;;19.10;96.70;;;;;;5409232;26;20833;-74
2024/04/17 13:16:11;;;;;;;1.75;0.50;;;19.30;96.70;;;;;;5408431;26;20054;-75
2024/04/17 13:18:40;;;;;;;3.22;0.50;;;19.50;96.70;;;;;;5407307;26;20642;-75
2024/04/17 13:21:09;;;;;;;3.83;1.08;;;19.90;96.70;;;;;;5408775;26;20018;-75
2024/04/17 13:23:38;;;;;;;2.78;0.90;;;20.20;96.70;;;;;;5406710;26;20010;-75